Time;durP1;ratioP1;P1;durP2;ratioP2;P2;SDS_P1;SDS_P2;PMS_P1;PMS_P2;Temp;Humidity;BMP_temperature;BMP_pressure;BME280_temperature;BME280_humidity;BME280_pressure;Samples;Min_cycle;Max_cycle;Signal;HPM_P1;HPM_P2
2021/06/14 00:01:21;;;;;;;7.00;4.00;;;22.50;1.00;;;;;;4981915;28;20179;-86
2021/06/14 00:03:47;;;;;;;9.60;4.47;;;22.50;1.00;;;;;;4983613;28;20651;-84
2021/06/14 00:06:16;;;;;;;9.63;4.30;;;22.50;1.00;;;;;;5000241;28;20176;-84
2021/06/14 00:08:43;;;;;;;12.40;4.37;;;22.40;1.00;;;;;;4992755;28;20179;-87
2021/06/14 00:11:10;;;;;;;7.90;4.17;;;22.40;1.00;;;;;;4978356;28;20168;-86
2021/06/14 00:13:37;;;;;;;7.13;4.23;;;22.30;99.90;;;;;;4993965;28;20230;-86
2021/06/14 00:16:04;;;;;;;6.80;3.80;;;22.30;1.00;;;;;;4980779;28;20182;-87
2021/06/14 00:18:31;;;;;;;9.27;4.10;;;22.30;99.90;;;;;;4978202;28;20309;-85
2021/06/14 00:21:00;;;;;;;7.90;4.40;;;22.30;99.90;;;;;;4978493;28;20176;-86
2021/06/14 00:23:29;;;;;;;7.53;4.70;;;22.20;1.00;;;;;;4979213;28;20187;-86
2021/06/14 00:25:55;;;;;;;7.17;3.80;;;22.20;99.90;;;;;;4978930;28;20631;-84
2021/06/14 00:28:21;;;;;;;9.27;4.57;;;22.10;40.00;;;;;;4978290;28;20259;-84
2021/06/14 00:30:48;;;;;;;9.60;4.67;;;22.10;99.90;;;;;;4985877;28;20206;-84
2021/06/14 00:33:16;;;;;;;7.87;3.90;;;22.10;1.00;;;;;;4981324;28;20191;-84
2021/06/14 00:35:44;;;;;;;9.17;4.33;;;22.10;1.00;;;;;;4978773;28;20171;-85
2021/06/14 00:38:11;;;;;;;7.57;3.83;;;22.10;1.00;;;;;;4993097;28;20693;-85
2021/06/14 00:40:37;;;;;;;10.00;4.77;;;22.10;1.00;;;;;;4978780;28;20179;-85
2021/06/14 00:43:05;;;;;;;8.50;4.30;;;21.90;99.90;;;;;;4978032;28;20182;-85
2021/06/14 00:45:33;;;;;;;8.77;4.23;;;22.10;99.90;;;;;;4976044;28;20186;-84
2021/06/14 00:48:02;;;;;;;7.57;4.10;;;22.10;89.90;;;;;;4977710;28;20186;-86
2021/06/14 00:50:35;;;;;;;7.77;4.10;;;22.20;1.00;;;;;;4980219;28;20168;-83
2021/06/14 00:53:01;;;;;;;6.60;3.97;;;22.10;1.00;;;;;;4981406;28;20179;-83
2021/06/14 00:55:27;;;;;;;10.27;4.30;;;22.20;1.00;;;;;;4978775;28;20522;-84
2021/06/14 00:57:53;;;;;;;6.27;3.90;;;22.10;1.00;;;;;;4978076;28;20234;-84
2021/06/14 01:00:21;;;;;;;7.27;4.07;;;22.00;6.60;;;;;;4978357;28;20628;-84
2021/06/14 01:02:48;;;;;;;6.30;4.00;;;21.80;1.00;;;;;;4977154;28;20182;-84
2021/06/14 01:05:16;;;;;;;8.47;4.10;;;21.80;1.00;;;;;;4976878;28;20178;-85
2021/06/14 01:07:42;;;;;;;9.07;4.37;;;21.60;1.00;;;;;;4977329;28;20229;-83
2021/06/14 01:10:08;;;;;;;10.63;4.63;;;21.60;1.00;;;;;;4977605;28;20176;-84
2021/06/14 01:12:42;;;;;;;9.83;4.53;;;21.50;1.00;;;;;;4978936;28;20632;-84
2021/06/14 01:15:14;;;;;;;10.30;4.60;;;21.50;1.00;;;;;;4983897;28;20174;-84
2021/06/14 01:17:46;;;;;;;8.53;4.60;;;21.30;1.00;;;;;;4994022;28;20210;-84
2021/06/14 01:20:34;;;;;;;8.67;4.80;;;21.20;1.00;;;;;;4981057;28;20225;-85
2021/06/14 01:23:43;;;;;;;8.90;4.57;;;21.20;1.00;;;;;;4978674;28;20190;-84
2021/06/14 01:26:23;;;;;;;9.03;4.93;;;21.30;99.90;;;;;;4978036;28;20193;-84
2021/06/14 01:29:01;;;;;;;9.67;4.90;;;21.30;1.00;;;;;;4979801;28;20174;-84
2021/06/14 01:31:30;;;;;;;9.53;4.67;;;21.10;99.90;;;;;;4977985;28;20283;-85
2021/06/14 01:33:57;;;;;;;10.97;4.77;;;21.10;99.90;;;;;;4976362;28;20563;-84
2021/06/14 01:36:27;;;;;;;9.70;5.00;;;21.00;99.90;;;;;;4985265;28;20167;-83
2021/06/14 01:38:54;;;;;;;9.97;5.07;;;20.90;99.90;;;;;;5009069;28;20257;-84
2021/06/14 01:41:23;;;;;;;7.63;4.77;;;20.90;99.90;;;;;;4980272;28;20650;-84
2021/06/14 01:43:50;;;;;;;10.43;4.60;;;20.80;99.90;;;;;;4977139;28;20184;-85
2021/06/14 01:46:25;;;;;;;7.37;4.73;;;20.70;99.90;;;;;;4976933;28;20170;-84
2021/06/14 01:48:52;;;;;;;12.37;5.17;;;20.80;1.00;;;;;;4977035;28;20228;-83
2021/06/14 01:51:23;;;;;;;9.70;4.73;;;20.60;99.90;;;;;;4976916;28;20213;-84
2021/06/14 01:54:06;;;;;;;9.00;4.83;;;20.60;99.90;;;;;;4980112;28;20177;-84
2021/06/14 01:56:43;;;;;;;7.50;4.80;;;20.40;1.00;;;;;;4995682;28;20187;-84
2021/06/14 01:59:15;;;;;;;7.07;5.13;;;20.50;99.90;;;;;;4981281;28;20207;-83
2021/06/14 02:01:42;;;;;;;8.87;4.73;;;20.40;89.40;;;;;;4977169;28;20534;-84
2021/06/14 02:04:08;;;;;;;9.57;5.17;;;20.40;99.90;;;;;;4976878;28;20279;-84
2021/06/14 02:06:37;;;;;;;8.03;5.10;;;20.50;99.90;;;;;;4975289;28;20211;-84
2021/06/14 02:09:10;;;;;;;7.97;5.53;;;20.60;99.90;;;;;;4976926;28;20181;-84
2021/06/14 02:11:40;;;;;;;8.87;5.20;;;20.70;1.00;;;;;;4977017;28;20260;-84
2021/06/14 02:14:11;;;;;;;10.20;5.37;;;20.50;99.90;;;;;;4976731;28;20184;-85
2021/06/14 02:16:38;;;;;;;8.83;5.13;;;20.50;45.00;;;;;;4991286;28;20177;-84
2021/06/14 02:19:07;;;;;;;7.93;5.37;;;20.50;99.90;;;;;;4975307;28;20277;-84
2021/06/14 02:21:33;;;;;;;9.77;5.60;;;20.40;99.90;;;;;;4974806;28;20191;-85
2021/06/14 02:23:59;;;;;;;11.20;5.80;;;20.30;99.90;;;;;;4976702;28;20177;-85
2021/06/14 02:26:24;;;;;;;10.37;5.27;;;20.30;99.90;;;;;;4976396;28;20169;-84
2021/06/14 02:28:50;;;;;;;11.43;5.20;;;20.20;99.90;;;;;;4975299;28;20653;-84
2021/06/14 02:31:17;;;;;;;13.97;5.27;;;20.10;99.90;;;;;;4976567;28;20222;-85
2021/06/14 02:33:43;;;;;;;8.53;5.10;;;20.20;99.90;;;;;;4976921;28;20530;-84
2021/06/14 02:36:09;;;;;;;7.17;4.60;;;20.20;99.90;;;;;;4975729;28;20269;-86
2021/06/14 02:38:37;;;;;;;10.77;5.43;;;20.40;99.90;;;;;;4976966;28;20237;-86
2021/06/14 02:41:04;;;;;;;8.63;4.90;;;20.30;99.90;;;;;;4977636;28;20216;-84
2021/06/14 02:43:34;;;;;;;8.83;5.00;;;20.30;99.90;;;;;;4980575;28;20208;-84
2021/06/14 02:46:00;;;;;;;8.70;5.00;;;20.30;99.90;;;;;;4991848;28;20165;-84
2021/06/14 02:48:27;;;;;;;11.03;5.70;;;20.40;99.90;;;;;;4997614;28;20260;-86
2021/06/14 02:50:54;;;;;;;8.27;4.67;;;20.40;99.90;;;;;;4976632;28;20574;-86
2021/06/14 02:53:35;;;;;;;7.90;4.90;;;20.40;99.10;;;;;;4976169;28;20176;-86
2021/06/14 02:56:14;;;;;;;6.97;4.60;;;20.50;1.00;;;;;;4974652;28;20175;-87
2021/06/14 02:58:45;;;;;;;7.50;4.70;;;20.60;98.90;;;;;;4973701;28;20227;-85
2021/06/14 03:01:12;;;;;;;7.33;4.40;;;20.60;1.00;;;;;;4974987;28;20187;-85
2021/06/14 03:03:42;;;;;;;8.57;4.50;;;20.60;1.00;;;;;;4976826;28;20181;-86
2021/06/14 03:06:12;;;;;;;6.83;4.97;;;20.70;1.00;;;;;;4977187;28;20539;-86
2021/06/14 03:08:39;;;;;;;8.33;4.70;;;20.60;1.00;;;;;;4983933;28;20173;-85
2021/06/14 03:11:05;;;;;;;7.97;4.10;;;20.70;99.90;;;;;;5000788;28;20195;-84
2021/06/14 03:13:33;;;;;;;8.93;4.37;;;20.60;99.90;;;;;;5001192;28;20165;-84
2021/06/14 03:16:00;;;;;;;9.00;4.47;;;20.50;1.00;;;;;;4986222;28;20199;-87
2021/06/14 03:18:31;;;;;;;8.93;4.53;;;20.60;99.90;;;;;;4981195;28;20212;-84
2021/06/14 03:21:00;;;;;;;7.70;4.40;;;20.60;99.90;;;;;;4982944;28;20175;-86
2021/06/14 03:23:26;;;;;;;9.30;4.80;;;20.50;99.90;;;;;;4981863;28;20216;-86
2021/06/14 03:25:53;;;;;;;10.13;4.47;;;20.50;99.90;;;;;;4983478;28;20172;-85
2021/06/14 03:28:19;;;;;;;8.80;4.33;;;20.50;34.90;;;;;;4987563;28;20204;-86
2021/06/14 03:30:45;;;;;;;10.40;4.90;;;20.50;99.90;;;;;;4998436;28;20236;-84
2021/06/14 03:33:16;;;;;;;10.53;4.40;;;20.40;1.00;;;;;;4986356;28;20242;-86
2021/06/14 03:35:42;;;;;;;9.03;4.43;;;20.30;1.00;;;;;;4982776;28;20219;-84
2021/06/14 03:38:08;;;;;;;8.00;4.50;;;20.40;1.00;;;;;;4982475;28;20681;-83
2021/06/14 03:40:35;;;;;;;9.80;4.60;;;20.40;1.00;;;;;;4997488;28;20615;-85
2021/06/14 03:43:04;;;;;;;9.17;5.10;;;20.40;1.00;;;;;;4982665;28;20192;-86
2021/06/14 03:45:30;;;;;;;9.33;4.80;;;20.50;1.00;;;;;;4983404;28;20606;-85
2021/06/14 03:47:57;;;;;;;10.80;4.50;;;20.40;1.00;;;;;;4982620;28;20423;-85
2021/06/14 03:50:23;;;;;;;7.83;5.37;;;20.40;1.00;;;;;;4991066;28;20179;-84
2021/06/14 03:52:49;;;;;;;10.13;4.80;;;20.20;99.90;;;;;;4995954;28;20184;-84
2021/06/14 03:55:16;;;;;;;8.97;5.37;;;20.00;99.90;;;;;;4982860;28;20586;-83
2021/06/14 03:57:42;;;;;;;10.53;5.00;;;20.10;99.90;;;;;;4982713;28;20200;-84
2021/06/14 04:00:10;;;;;;;8.40;5.30;;;20.30;99.90;;;;;;4982634;28;20666;-84
2021/06/14 04:02:37;;;;;;;10.30;4.97;;;20.30;99.90;;;;;;4982646;28;20222;-83
2021/06/14 04:05:05;;;;;;;8.63;5.83;;;20.40;99.90;;;;;;4983875;28;20180;-84
2021/06/14 04:07:30;;;;;;;8.97;5.30;;;20.30;99.90;;;;;;4983156;28;20277;-84
2021/06/14 04:09:59;;;;;;;7.87;5.23;;;20.20;99.90;;;;;;4994109;28;20629;-85
2021/06/14 04:12:27;;;;;;;8.37;5.10;;;20.30;99.90;;;;;;4996920;28;20165;-85
2021/06/14 04:14:53;;;;;;;9.23;5.70;;;20.40;99.90;;;;;;4996353;28;20174;-85
2021/06/14 04:17:19;;;;;;;9.03;5.37;;;20.40;99.90;;;;;;5004015;28;20172;-83
2021/06/14 04:19:47;;;;;;;8.83;5.70;;;20.00;99.90;;;;;;5002015;28;20209;-85
2021/06/14 04:22:16;;;;;;;10.50;5.90;;;20.10;99.90;;;;;;4993738;28;20183;-86
2021/06/14 04:24:43;;;;;;;9.80;5.30;;;20.00;99.90;;;;;;4985509;28;20648;-88
2021/06/14 04:27:18;;;;;;;13.37;5.87;;;20.10;99.90;;;;;;4985158;28;20519;-84
2021/06/14 04:29:44;;;;;;;10.30;5.77;;;20.10;99.90;;;;;;4984683;28;20255;-87
2021/06/14 04:32:10;;;;;;;9.23;5.40;;;20.00;99.90;;;;;;4983393;28;20199;-86
2021/06/14 04:34:48;;;;;;;9.90;5.50;;;19.80;1.00;;;;;;5000904;28;20227;-84
2021/06/14 04:37:14;;;;;;;9.40;6.10;;;19.90;1.00;;;;;;4990205;28;20234;-86
2021/06/14 04:39:40;;;;;;;8.53;5.77;;;19.90;1.00;;;;;;4979434;28;20302;-86
2021/06/14 04:42:08;;;;;;;9.30;5.63;;;19.90;1.00;;;;;;4979470;28;20191;-87
2021/06/14 04:44:34;;;;;;;8.00;5.00;;;20.00;1.00;;;;;;4980192;28;20179;-86
2021/06/14 04:47:00;;;;;;;10.73;5.30;;;20.10;1.00;;;;;;4980020;28;20179;-85
2021/06/14 04:49:25;;;;;;;11.30;5.80;;;20.10;1.00;;;;;;4994623;28;20188;-86
2021/06/14 04:51:52;;;;;;;10.63;5.97;;;20.30;99.90;;;;;;4989158;28;20171;-84
2021/06/14 04:54:18;;;;;;;11.07;6.20;;;20.40;99.90;;;;;;5015416;28;20192;-84
2021/06/14 04:56:44;;;;;;;13.87;5.30;;;20.50;99.90;;;;;;5014875;28;20199;-84
2021/06/14 04:59:09;;;;;;;8.27;5.37;;;20.50;99.90;;;;;;4995019;28;20309;-87
2021/06/14 05:01:35;;;;;;;12.83;5.70;;;20.50;99.90;;;;;;4983212;28;20168;-87
2021/06/14 05:04:01;;;;;;;15.60;5.67;;;20.60;99.90;;;;;;4981228;28;20578;-86
2021/06/14 05:06:32;;;;;;;10.17;5.50;;;20.70;99.90;;;;;;4981651;28;20192;-86
2021/06/14 05:09:15;;;;;;;10.00;5.03;;;20.70;99.90;;;;;;4979070;28;20161;-85
2021/06/14 05:11:49;;;;;;;8.10;5.13;;;20.60;99.90;;;;;;4978759;28;20193;-86
2021/06/14 05:14:17;;;;;;;11.00;5.40;;;20.70;6.90;;;;;;4979866;28;20172;-87
2021/06/14 05:16:43;;;;;;;10.77;4.93;;;20.50;99.90;;;;;;4978064;28;20620;-85
2021/06/14 05:19:09;;;;;;;9.67;5.27;;;20.30;99.90;;;;;;4979449;28;20229;-86
2021/06/14 05:21:36;;;;;;;10.73;5.00;;;20.20;99.90;;;;;;4993727;28;20236;-86
2021/06/14 05:24:02;;;;;;;12.27;5.33;;;20.10;99.90;;;;;;4978302;28;20163;-86
2021/06/14 05:26:28;;;;;;;12.13;5.33;;;20.10;1.00;;;;;;4992319;28;20176;-85
2021/06/14 05:28:54;;;;;;;11.97;5.37;;;20.30;99.90;;;;;;4978477;28;20247;-86
2021/06/14 05:31:20;;;;;;;11.47;5.53;;;20.60;99.90;;;;;;4978387;28;20174;-86
2021/06/14 05:33:45;;;;;;;13.00;5.70;;;20.70;99.90;;;;;;4978768;28;20196;-84
2021/06/14 05:36:11;;;;;;;11.63;5.90;;;20.70;99.90;;;;;;4978377;28;20220;-86
2021/06/14 05:38:37;;;;;;;13.67;5.73;;;20.80;1.00;;;;;;4978198;28;20248;-84
2021/06/14 05:41:03;;;;;;;14.17;5.73;;;21.00;1.00;;;;;;4976307;28;20200;-85
2021/06/14 05:43:30;;;;;;;12.60;5.83;;;20.90;1.00;;;;;;4976098;28;20195;-79
2021/06/14 05:45:56;;;;;;;12.97;5.83;;;20.90;1.00;;;;;;4993327;28;20259;-80
2021/06/14 05:48:23;;;;;;;11.83;5.60;;;20.90;1.00;;;;;;4995381;28;20207;-78
2021/06/14 05:50:49;;;;;;;8.20;5.00;;;21.00;1.00;;;;;;4993754;28;20184;-79
2021/06/14 05:53:15;;;;;;;12.20;4.87;;;21.10;1.00;;;;;;4992832;28;20208;-78
2021/06/14 05:55:41;;;;;;;11.87;5.20;;;21.40;1.00;;;;;;4994606;28;20636;-78
2021/06/14 05:58:07;;;;;;;9.47;5.43;;;21.30;30.90;;;;;;4996310;28;20672;-78
2021/06/14 06:00:34;;;;;;;10.17;5.03;;;21.50;99.90;;;;;;4994435;28;20181;-79
2021/06/14 06:02:59;;;;;;;8.63;5.40;;;21.70;1.00;;;;;;4994372;28;20176;-80
2021/06/14 06:05:25;;;;;;;10.20;4.80;;;21.80;1.00;;;;;;4994344;28;20579;-80
2021/06/14 06:07:51;;;;;;;11.43;5.70;;;21.90;1.00;;;;;;4993220;28;20177;-78
2021/06/14 06:10:17;;;;;;;13.57;5.90;;;22.10;99.90;;;;;;4995470;28;20228;-79
2021/06/14 06:12:48;;;;;;;9.77;5.20;;;22.20;99.90;;;;;;4994625;28;20183;-80
2021/06/14 06:15:17;;;;;;;12.07;4.97;;;22.30;99.90;;;;;;4994622;28;20201;-77
2021/06/14 06:17:44;;;;;;;9.17;5.10;;;22.30;99.90;;;;;;4993957;28;20166;-79
2021/06/14 06:20:12;;;;;;;8.90;5.30;;;22.30;1.00;;;;;;4995702;28;20244;-79
2021/06/14 06:22:40;;;;;;;10.30;4.83;;;22.20;1.00;;;;;;4999111;28;20204;-81
2021/06/14 06:25:07;;;;;;;8.43;4.57;;;22.10;1.00;;;;;;4998980;28;20186;-80
2021/06/14 06:27:33;;;;;;;10.47;4.47;;;22.00;1.00;;;;;;5012614;28;20186;-80
2021/06/14 06:29:59;;;;;;;12.23;5.20;;;22.10;1.00;;;;;;5013970;28;20655;-79
2021/06/14 06:32:28;;;;;;;13.90;5.27;;;22.10;99.90;;;;;;4995000;28;20688;-80
2021/06/14 06:34:53;;;;;;;12.83;4.93;;;22.20;1.00;;;;;;4994359;28;20228;-83
2021/06/14 06:37:19;;;;;;;12.33;5.30;;;22.30;1.00;;;;;;4993776;28;20658;-83
2021/06/14 06:39:44;;;;;;;12.30;5.40;;;22.10;99.90;;;;;;5011453;28;20220;-84
2021/06/14 06:42:10;;;;;;;11.60;5.57;;;22.10;99.90;;;;;;4999924;28;20196;-84
2021/06/14 06:44:36;;;;;;;11.87;5.00;;;22.20;1.00;;;;;;5015907;28;20187;-84
2021/06/14 06:47:04;;;;;;;12.97;4.93;;;22.10;99.90;;;;;;5004592;28;20181;-84
2021/06/14 06:49:31;;;;;;;16.23;5.83;;;22.10;1.00;;;;;;4997431;28;20185;-84
2021/06/14 06:51:58;;;;;;;11.43;4.60;;;22.00;92.70;;;;;;5003489;28;20194;-83
2021/06/14 06:54:24;;;;;;;14.57;5.10;;;22.00;24.10;;;;;;5011729;28;20170;-83
2021/06/14 06:56:52;;;;;;;10.57;4.83;;;22.10;1.00;;;;;;5018789;28;20590;-84
2021/06/14 06:59:19;;;;;;;14.63;4.97;;;22.10;79.70;;;;;;5003007;28;20203;-84
2021/06/14 07:01:46;;;;;;;17.97;4.90;;;22.30;99.90;;;;;;4995521;28;20201;-83
2021/06/14 07:04:13;;;;;;;10.70;5.27;;;22.30;99.90;;;;;;4996673;28;20210;-85
2021/06/14 07:06:39;;;;;;;9.67;5.03;;;22.50;1.00;;;;;;4997859;28;20226;-82
2021/06/14 07:09:06;;;;;;;13.30;4.97;;;22.60;1.00;;;;;;5000414;28;20646;-82
2021/06/14 07:11:33;;;;;;;11.27;5.20;;;22.50;39.70;;;;;;4998458;28;20184;-83
2021/06/14 07:13:59;;;;;;;12.83;5.30;;;22.50;42.20;;;;;;4996341;28;20171;-82
2021/06/14 07:16:25;;;;;;;11.53;4.87;;;22.40;99.90;;;;;;4995249;28;20703;-83
2021/06/14 07:18:55;;;;;;;14.07;5.23;;;22.50;1.00;;;;;;4994904;28;20210;-82
2021/06/14 07:21:22;;;;;;;10.17;5.40;;;22.70;1.00;;;;;;4993665;28;20177;-83
2021/06/14 07:23:49;;;;;;;15.50;4.97;;;22.70;99.90;;;;;;4996627;28;20593;-84
2021/06/14 07:26:15;;;;;;;12.10;5.27;;;22.90;1.00;;;;;;4997867;28;20620;-84
2021/06/14 07:28:41;;;;;;;11.17;4.87;;;23.00;1.00;;;;;;5001737;28;20543;-83
2021/06/14 07:31:09;;;;;;;10.90;5.00;;;23.00;99.90;;;;;;5006327;28;20178;-83
2021/06/14 07:33:35;;;;;;;8.80;4.30;;;23.00;1.00;;;;;;5001072;28;20186;-84
2021/06/14 07:36:06;;;;;;;9.33;4.33;;;23.00;1.00;;;;;;4998507;28;20243;-84
2021/06/14 07:38:31;;;;;;;9.63;4.80;;;23.00;1.00;;;;;;4994799;28;20545;-84
2021/06/14 07:40:58;;;;;;;11.00;5.03;;;23.10;99.90;;;;;;4999278;28;20245;-86
2021/06/14 07:43:24;;;;;;;9.30;4.23;;;23.10;1.00;;;;;;4998021;28;20619;-84
2021/06/14 07:45:50;;;;;;;10.27;4.37;;;23.10;1.00;;;;;;5001096;28;20221;-84
2021/06/14 07:48:18;;;;;;;9.07;4.40;;;23.20;1.00;;;;;;5017534;28;20183;-84
2021/06/14 07:50:48;;;;;;;7.90;4.27;;;23.30;99.90;;;;;;5029035;28;20172;-84
2021/06/14 07:53:14;;;;;;;7.80;4.27;;;23.30;99.90;;;;;;5030163;28;20158;-83
2021/06/14 07:55:40;;;;;;;10.37;4.03;;;23.40;1.00;;;;;;5027552;28;20202;-86
2021/06/14 07:58:07;;;;;;;10.00;3.70;;;23.60;1.00;;;;;;4997502;28;20218;-87
2021/06/14 08:00:33;;;;;;;8.23;4.30;;;23.80;1.00;;;;;;5000206;28;20206;-85
2021/06/14 08:02:59;;;;;;;6.97;3.50;;;23.70;1.00;;;;;;4999489;28;20187;-83
2021/06/14 08:05:27;;;;;;;8.60;3.70;;;23.70;1.00;;;;;;5000404;28;20180;-84
2021/06/14 08:07:52;;;;;;;11.33;3.77;;;23.70;99.90;;;;;;5002102;28;20179;-87
2021/06/14 08:10:20;;;;;;;8.93;3.50;;;23.80;99.90;;;;;;5004221;28;20189;-84
2021/06/14 08:12:50;;;;;;;9.13;4.13;;;23.80;99.90;;;;;;5002217;28;20177;-85
2021/06/14 08:15:22;;;;;;;12.43;4.13;;;23.90;1.00;;;;;;5005038;28;20177;-85
2021/06/14 08:17:49;;;;;;;11.33;4.10;;;24.20;99.90;;;;;;5002944;28;20176;-85
2021/06/14 08:20:37;;;;;;;7.73;3.83;;;24.00;18.30;;;;;;5000892;28;20180;-85
2021/06/14 08:25:49;;;;;;;6.83;3.60;;;24.20;99.90;;;;;;5003161;28;20179;-86
2021/06/14 08:28:16;;;;;;;9.83;3.70;;;24.40;99.90;;;;;;5000810;28;20172;-83
2021/06/14 08:30:43;;;;;;;7.97;3.47;;;24.40;83.10;;;;;;5002356;28;20172;-83
2021/06/14 08:33:09;;;;;;;9.00;3.20;;;24.50;1.00;;;;;;5000860;28;20183;-82
2021/06/14 08:35:34;;;;;;;7.00;3.40;;;24.60;1.00;;;;;;5001133;28;20207;-84
2021/06/14 08:38:00;;;;;;;12.30;3.60;;;24.80;99.90;;;;;;5001253;28;20821;-81
2021/06/14 08:40:30;;;;;;;8.80;3.20;;;24.80;99.90;;;;;;5001763;28;20230;-85
2021/06/14 08:43:04;;;;;;;7.20;3.50;;;25.00;99.90;;;;;;5002077;28;20216;-82
2021/06/14 08:45:36;;;;;;;6.77;2.90;;;24.90;52.80;;;;;;5000452;28;20177;-83
2021/06/14 08:48:03;;;;;;;8.33;3.73;;;25.00;24.20;;;;;;5019966;28;20178;-84
2021/06/14 08:50:29;;;;;;;8.03;3.20;;;24.90;1.00;;;;;;5019077;28;20176;-80
2021/06/14 08:52:55;;;;;;;5.27;3.17;;;24.80;1.00;;;;;;5017827;28;20184;-82
2021/06/14 08:55:21;;;;;;;8.00;3.50;;;24.70;1.00;;;;;;5020629;28;20610;-82
2021/06/14 08:57:47;;;;;;;10.47;3.10;;;24.90;1.00;;;;;;5015691;28;20645;-82
2021/06/14 09:00:35;;;;;;;7.40;3.17;;;25.00;1.00;;;;;;4998250;28;20177;-82
2021/06/14 09:03:02;;;;;;;7.03;3.30;;;25.10;1.00;;;;;;4999250;28;20185;-83
2021/06/14 09:05:28;;;;;;;6.53;3.10;;;25.10;1.00;;;;;;4997921;28;20185;-82
2021/06/14 09:08:01;;;;;;;9.13;3.47;;;25.20;1.00;;;;;;5001098;28;20182;-81
2021/06/14 09:10:32;;;;;;;10.77;5.23;;;25.20;1.00;;;;;;4999289;28;20668;-81
2021/06/14 09:13:17;;;;;;;10.03;4.17;;;25.30;1.00;;;;;;4999391;28;20171;-82
2021/06/14 09:15:58;;;;;;;7.57;3.63;;;25.40;1.00;;;;;;4979936;28;20215;-83
2021/06/14 09:18:26;;;;;;;8.13;3.07;;;25.50;1.00;;;;;;4977588;28;20291;-81
2021/06/14 09:21:13;;;;;;;6.77;3.47;;;25.60;1.00;;;;;;4991300;28;20167;-81
2021/06/14 09:23:56;;;;;;;10.53;3.70;;;25.80;1.00;;;;;;4999419;28;20187;-83
2021/06/14 09:26:37;;;;;;;9.53;4.17;;;25.90;1.00;;;;;;4993814;28;20210;-83
2021/06/14 09:29:08;;;;;;;12.77;6.87;;;25.70;1.00;;;;;;4986854;28;20592;-82
2021/06/14 09:31:49;;;;;;;8.43;3.73;;;25.60;1.00;;;;;;4988845;28;20166;-81
2021/06/14 09:34:29;;;;;;;17.87;9.83;;;25.50;1.00;;;;;;4990434;28;20189;-81
2021/06/14 09:37:04;;;;;;;6.93;4.37;;;25.50;1.00;;;;;;4978877;28;20253;-82
2021/06/14 09:39:46;;;;;;;7.57;3.50;;;25.40;1.00;;;;;;4979628;28;20702;-81
2021/06/14 09:42:26;;;;;;;9.40;3.33;;;25.50;1.00;;;;;;4981195;28;20199;-81
2021/06/14 09:45:03;;;;;;;8.07;4.50;;;25.60;1.00;;;;;;4979000;28;20178;-81
2021/06/14 09:47:29;;;;;;;16.67;9.03;;;25.60;1.00;;;;;;5009079;28;20176;-80
2021/06/14 09:50:07;;;;;;;10.27;7.37;;;25.50;1.00;;;;;;5020031;28;20213;-80
2021/06/14 09:52:33;;;;;;;11.60;3.90;;;25.40;1.00;;;;;;5020235;28;20184;-81
2021/06/14 09:55:11;;;;;;;7.93;3.63;;;25.50;1.00;;;;;;5011785;28;20172;-80
2021/06/14 09:57:37;;;;;;;7.97;3.30;;;25.50;1.00;;;;;;5012784;28;20187;-81
2021/06/14 10:00:16;;;;;;;7.17;3.07;;;25.50;1.00;;;;;;5017854;28;20185;-80
2021/06/14 10:02:44;;;;;;;22.03;13.70;;;25.70;1.00;;;;;;5015185;28;20158;-82
2021/06/14 10:05:21;;;;;;;9.20;4.07;;;25.80;1.00;;;;;;5010988;28;20234;-82
2021/06/14 10:07:49;;;;;;;6.20;3.70;;;25.70;1.00;;;;;;5005359;28;20179;-77
2021/06/14 10:10:25;;;;;;;8.70;3.43;;;25.50;1.00;;;;;;5005028;28;20180;-78
2021/06/14 10:12:54;;;;;;;7.50;4.00;;;25.60;1.00;;;;;;4996752;28;20172;-81
2021/06/14 10:15:31;;;;;;;9.87;3.70;;;25.70;23.40;;;;;;4999831;28;20204;-81
2021/06/14 10:17:57;;;;;;;10.67;3.83;;;25.80;6.40;;;;;;4999337;28;20205;-80
2021/06/14 10:20:28;;;;;;;12.80;4.17;;;25.80;99.90;;;;;;4996820;28;20193;-81
2021/06/14 10:22:57;;;;;;;10.17;4.27;;;26.20;98.10;;;;;;4998985;28;20177;-79
2021/06/14 10:25:25;;;;;;;10.00;3.53;;;26.40;23.80;;;;;;4998911;28;20173;-78
2021/06/14 10:27:51;;;;;;;8.57;3.50;;;26.20;1.00;;;;;;5001220;28;20164;-79
2021/06/14 10:30:18;;;;;;;8.00;3.90;;;26.30;25.90;;;;;;5008056;28;20174;-78
2021/06/14 10:32:45;;;;;;;8.47;3.20;;;26.40;19.80;;;;;;5022814;28;20678;-78
2021/06/14 10:35:14;;;;;;;9.23;3.87;;;26.50;12.90;;;;;;5025145;28;20253;-80
2021/06/14 10:37:44;;;;;;;7.60;3.23;;;26.60;1.00;;;;;;5029614;28;20170;-79
2021/06/14 10:40:31;;;;;;;9.67;3.63;;;27.00;1.00;;;;;;5021628;28;20174;-79
2021/06/14 10:43:00;;;;;;;5.63;3.73;;;26.90;1.00;;;;;;5023708;28;20178;-82
2021/06/14 10:45:28;;;;;;;5.90;3.30;;;26.70;1.00;;;;;;5020174;28;20203;-79
2021/06/14 10:47:56;;;;;;;4.30;2.73;;;26.70;1.00;;;;;;5009317;28;20182;-83
2021/06/14 10:50:34;;;;;;;5.77;3.30;;;26.90;1.00;;;;;;5002851;28;20177;-81
2021/06/14 10:53:00;;;;;;;5.43;3.50;;;26.90;99.90;;;;;;5001785;28;20164;-82
2021/06/14 10:55:28;;;;;;;7.47;3.10;;;26.90;1.00;;;;;;5001792;28;20304;-81
2021/06/14 10:57:54;;;;;;;6.53;3.30;;;27.00;99.90;;;;;;5003830;28;20176;-82
2021/06/14 11:00:22;;;;;;;7.97;3.40;;;27.10;99.90;;;;;;4999649;28;20174;-81
2021/06/14 11:03:02;;;;;;;9.70;3.70;;;27.30;99.90;;;;;;4998799;28;20547;-81
2021/06/14 11:05:30;;;;;;;6.03;3.00;;;27.40;99.90;;;;;;5004749;28;20199;-81
2021/06/14 11:07:55;;;;;;;4.50;3.07;;;27.60;99.90;;;;;;5001828;28;20158;-80
2021/06/14 11:10:28;;;;;;;7.23;3.43;;;27.50;99.90;;;;;;5000679;28;20163;-80
2021/06/14 11:13:07;;;;;;;6.97;3.60;;;27.40;99.90;;;;;;4997305;28;20174;-81
2021/06/14 11:15:35;;;;;;;5.60;3.20;;;27.30;99.90;;;;;;4979963;28;20163;-80
2021/06/14 11:18:06;;;;;;;7.27;3.00;;;27.50;99.90;;;;;;4992406;28;20232;-81
2021/06/14 11:20:36;;;;;;;6.30;3.10;;;27.60;99.90;;;;;;4969571;28;20188;-81
2021/06/14 11:23:04;;;;;;;5.27;3.13;;;27.60;99.90;;;;;;4990654;28;20182;-80
2021/06/14 11:25:40;;;;;;;5.53;3.50;;;27.50;99.90;;;;;;5011242;28;20639;-81
2021/06/14 11:28:30;;;;;;;4.07;2.77;;;27.50;99.90;;;;;;4980206;28;20202;-81
2021/06/14 11:30:57;;;;;;;7.13;3.03;;;27.40;99.90;;;;;;4983237;28;20187;-80
2021/06/14 11:33:28;;;;;;;5.93;3.07;;;27.40;99.90;;;;;;4985920;28;20187;-79
2021/06/14 11:35:55;;;;;;;9.17;7.70;;;27.30;99.90;;;;;;4994758;28;20190;-83
2021/06/14 11:38:24;;;;;;;10.37;7.80;;;27.10;99.90;;;;;;4995129;28;20229;-81
2021/06/14 11:40:56;;;;;;;5.80;3.60;;;27.30;99.90;;;;;;4989701;28;20202;-82
2021/06/14 11:43:23;;;;;;;12.43;7.80;;;27.30;99.90;;;;;;4990937;28;20591;-80
2021/06/14 11:45:52;;;;;;;7.30;3.20;;;27.40;99.90;;;;;;4995718;28;20173;-81
2021/06/14 11:48:23;;;;;;;4.80;2.77;;;27.40;99.90;;;;;;4995971;28;20176;-82
2021/06/14 11:50:51;;;;;;;6.23;3.37;;;27.30;99.90;;;;;;4982835;28;20244;-80
2021/06/14 11:53:17;;;;;;;5.20;3.30;;;27.30;99.90;;;;;;4993557;28;20179;-81
2021/06/14 11:55:45;;;;;;;5.73;3.33;;;27.30;99.90;;;;;;4979478;28;20314;-81
2021/06/14 11:58:12;;;;;;;7.00;3.77;;;27.50;99.90;;;;;;4981006;28;20226;-82
2021/06/14 12:00:44;;;;;;;5.13;2.97;;;27.60;62.70;;;;;;4989484;28;20662;-81
2021/06/14 12:03:19;;;;;;;7.93;3.23;;;27.60;54.70;;;;;;4997325;28;20171;-80
2021/06/14 12:05:45;;;;;;;4.10;2.67;;;27.60;10.30;;;;;;4998115;28;20167;-83
2021/06/14 12:08:16;;;;;;;4.83;2.40;;;27.60;30.30;;;;;;4999358;28;20194;-82
2021/06/14 12:10:42;;;;;;;5.50;2.53;;;27.60;46.20;;;;;;4993969;28;20178;-80
2021/06/14 12:13:11;;;;;;;6.83;5.87;;;27.50;7.80;;;;;;4999775;28;20536;-81
2021/06/14 12:15:40;;;;;;;7.03;4.37;;;27.60;13.70;;;;;;4999525;28;20267;-80
2021/06/14 12:18:08;;;;;;;3.23;2.20;;;27.50;12.10;;;;;;4988827;28;20477;-82
2021/06/14 12:20:36;;;;;;;4.13;2.90;;;27.70;1.00;;;;;;4975164;28;20207;-79
2021/06/14 12:23:10;;;;;;;3.80;2.43;;;28.00;1.00;;;;;;5008570;28;20180;-82
2021/06/14 12:25:42;;;;;;;4.67;2.30;;;28.00;1.00;;;;;;5006384;28;20183;-81
2021/06/14 12:28:09;;;;;;;3.60;2.30;;;27.90;1.00;;;;;;5000855;28;20602;-81
2021/06/14 12:30:36;;;;;;;6.77;2.70;;;28.00;1.00;;;;;;5001112;28;20186;-83
2021/06/14 12:33:02;;;;;;;5.20;2.50;;;28.00;1.00;;;;;;4994571;28;20196;-81
2021/06/14 12:35:31;;;;;;;4.17;2.40;;;28.10;1.00;;;;;;5001948;28;20167;-82
2021/06/14 12:37:56;;;;;;;5.17;2.57;;;28.20;1.00;;;;;;5005168;28;20206;-80
2021/06/14 12:40:36;;;;;;;5.10;2.50;;;28.40;1.00;;;;;;4992401;28;20181;-82
2021/06/14 12:43:06;;;;;;;6.10;2.77;;;28.60;1.00;;;;;;4984552;28;20172;-80
2021/06/14 12:45:38;;;;;;;6.37;2.40;;;28.80;1.00;;;;;;4998635;28;20189;-82
2021/06/14 12:48:07;;;;;;;7.40;4.30;;;29.10;1.00;;;;;;5000288;28;20177;-80
2021/06/14 12:50:42;;;;;;;3.63;2.30;;;29.10;1.00;;;;;;4991306;28;20172;-80
2021/06/14 12:53:10;;;;;;;4.53;2.47;;;28.70;1.00;;;;;;5002375;28;20285;-81
2021/06/14 12:55:38;;;;;;;5.27;2.40;;;28.90;1.00;;;;;;5011360;28;20203;-80
2021/06/14 12:58:13;;;;;;;5.30;2.77;;;28.90;1.00;;;;;;4997801;28;20258;-81
2021/06/14 13:00:41;;;;;;;5.07;3.07;;;28.70;1.00;;;;;;4998677;28;20175;-79